createdAt,value
2022-10-09T00:00:20.226Z,101247.13
2022-10-09T00:02:46.854Z,101245.84
2022-10-09T00:04:53.854Z,101245.75
2022-10-09T00:07:00.444Z,101244.92
2022-10-09T00:09:06.901Z,101237.73
2022-10-09T00:11:24.664Z,101241.86
2022-10-09T00:13:30.716Z,101244.08
2022-10-09T00:15:47.988Z,101240.45
2022-10-09T00:17:54.466Z,101239.16
2022-10-09T00:20:00.878Z,101242.57
2022-10-09T00:22:06.929Z,101243.42
2022-10-09T00:24:13.036Z,101243.17
2022-10-09T00:26:19.998Z,101243.89
2022-10-09T00:28:29.334Z,101243.19
2022-10-09T00:30:35.886Z,101241.05
2022-10-09T00:32:42.339Z,101243.28
2022-10-09T00:34:48.806Z,101246.63
2022-10-09T00:36:55.215Z,101243.14
2022-10-09T00:39:01.686Z,101245.75
2022-10-09T00:41:08.040Z,101239.26
2022-10-09T00:43:20.394Z,101240.27
2022-10-09T00:45:27.615Z,101241.05
2022-10-09T00:47:41.582Z,101238.77
2022-10-09T00:49:49.740Z,101241.98
2022-10-09T00:52:00.275Z,101237.43
2022-10-09T00:54:10.486Z,101233.00
2022-10-09T00:56:17.227Z,101235.33
2022-10-09T00:58:25.043Z,101230.59
2022-10-09T01:00:31.662Z,101234.05
2022-10-09T01:02:37.991Z,101234.90
2022-10-09T01:04:44.547Z,101235.86
2022-10-09T01:07:15.391Z,101233.44
2022-10-09T01:09:39.163Z,101233.98
2022-10-09T01:12:02.080Z,101238.63
2022-10-09T01:14:25.748Z,101240.55
2022-10-09T01:16:42.830Z,101241.09
2022-10-09T01:19:03.977Z,101241.88
2022-10-09T01:21:34.290Z,101244.52
2022-10-09T01:24:11.612Z,101243.64
2022-10-09T01:26:18.033Z,101243.93
2022-10-09T01:28:30.029Z,101248.75
2022-10-09T01:30:38.279Z,101248.18
2022-10-09T01:32:52.757Z,101251.71
2022-10-09T01:35:00.658Z,101254.44
2022-10-09T01:37:09.217Z,101254.77
2022-10-09T01:39:22.982Z,101253.35
2022-10-09T01:41:29.324Z,101256.81
2022-10-09T01:43:35.479Z,101259.25
2022-10-09T01:45:46.655Z,101257.52
2022-10-09T01:47:52.360Z,101261.30
2022-10-09T01:50:15.306Z,101264.14
2022-10-09T01:52:42.571Z,101264.60
2022-10-09T01:55:22.860Z,101268.15
2022-10-09T01:57:45.353Z,101268.74
2022-10-09T01:59:53.829Z,101269.74
2022-10-09T02:02:02.172Z,101264.10
2022-10-09T02:04:12.735Z,101263.06
2022-10-09T02:06:20.627Z,101264.36
2022-10-09T02:08:27.699Z,101264.96
2022-10-09T02:10:36.918Z,101265.96
2022-10-09T02:12:48.574Z,101273.16
2022-10-09T02:14:55.153Z,101275.27
2022-10-09T02:17:16.503Z,101277.02
2022-10-09T02:19:31.184Z,101279.23
2022-10-09T02:21:46.450Z,101278.27
2022-10-09T02:23:54.799Z,101284.80
2022-10-09T02:26:01.514Z,101285.44
2022-10-09T02:28:08.214Z,101287.17
2022-10-09T02:30:16.687Z,101290.77
2022-10-09T02:32:24.382Z,101291.02
2022-10-09T02:34:31.004Z,101290.96
2022-10-09T02:36:38.747Z,101291.22
2022-10-09T02:38:48.117Z,101290.60
2022-10-09T02:40:54.213Z,101290.92
2022-10-09T02:43:00.349Z,101293.09
2022-10-09T02:45:06.896Z,101296.15
2022-10-09T02:47:13.116Z,101296.73
2022-10-09T02:49:19.368Z,101299.03
2022-10-09T02:51:26.570Z,101297.86
2022-10-09T02:53:33.446Z,101299.02
2022-10-09T02:55:39.807Z,101298.44
2022-10-09T02:57:46.453Z,101297.88
2022-10-09T02:59:52.462Z,101304.04
2022-10-09T03:01:58.627Z,101302.85
2022-10-09T03:04:05.626Z,101309.42
2022-10-09T03:06:17.675Z,101312.38
2022-10-09T03:08:24.013Z,101315.24
2022-10-09T03:10:30.033Z,101314.56
2022-10-09T03:12:35.951Z,101315.07
2022-10-09T03:14:41.914Z,101310.83
2022-10-09T03:16:48.281Z,101309.25
2022-10-09T03:18:55.096Z,101313.17
2022-10-09T03:21:01.378Z,101314.92
2022-10-09T03:23:08.152Z,101318.65
2022-10-09T03:25:14.475Z,101323.06
2022-10-09T03:27:20.566Z,101326.67
2022-10-09T03:29:27.259Z,101329.28
2022-10-09T03:31:51.216Z,101331.42
2022-10-09T03:33:59.099Z,101332.37
2022-10-09T03:36:06.866Z,101335.02
2022-10-09T03:38:12.845Z,101334.98
2022-10-09T03:40:19.492Z,101335.38
2022-10-09T03:42:26.057Z,101334.92
2022-10-09T03:44:31.996Z,101336.85
2022-10-09T03:46:38.075Z,101337.04
2022-10-09T03:48:44.156Z,101337.98
2022-10-09T03:50:50.123Z,101337.26
2022-10-09T03:52:56.168Z,101334.86
2022-10-09T03:55:02.222Z,101337.46
2022-10-09T03:57:08.336Z,101335.85
2022-10-09T03:59:14.417Z,101336.64
2022-10-09T04:01:22.027Z,101338.05
2022-10-09T04:03:30.911Z,101340.29
2022-10-09T04:05:37.526Z,101337.44
2022-10-09T04:07:43.460Z,101344.18
2022-10-09T04:09:49.504Z,101343.76
2022-10-09T04:11:55.852Z,101344.05
2022-10-09T04:14:02.249Z,101349.70
2022-10-09T04:16:10.490Z,101352.13
2022-10-09T04:18:16.479Z,101350.42
2022-10-09T04:20:22.852Z,101355.73
2022-10-09T04:22:29.327Z,101356.25
2022-10-09T04:24:35.484Z,101359.14
2022-10-09T04:26:41.527Z,101361.27
2022-10-09T04:28:47.681Z,101363.85
2022-10-09T04:30:54.009Z,101362.35
2022-10-09T04:33:00.979Z,101359.55
2022-10-09T04:35:07.634Z,101364.93
2022-10-09T04:37:14.149Z,101364.81
2022-10-09T04:39:20.247Z,101365.02
2022-10-09T04:41:26.367Z,101364.02
2022-10-09T04:43:33.092Z,101373.23
2022-10-09T04:45:42.736Z,101370.13
2022-10-09T04:47:48.799Z,101369.80
2022-10-09T04:49:54.758Z,101367.66
2022-10-09T04:52:00.895Z,101367.27
2022-10-09T04:54:06.996Z,101368.05
2022-10-09T04:56:16.742Z,101370.02
2022-10-09T04:58:22.816Z,101367.15
2022-10-09T05:00:29.165Z,101369.42
2022-10-09T05:02:35.124Z,101369.40
2022-10-09T05:04:41.629Z,101368.88
2022-10-09T05:06:47.650Z,101376.21
2022-10-09T05:08:55.936Z,101373.55
2022-10-09T05:11:08.250Z,101373.98
2022-10-09T05:13:14.504Z,101373.37
2022-10-09T05:15:21.057Z,101371.11
2022-10-09T05:17:27.138Z,101371.80
2022-10-09T05:19:34.269Z,101373.52
2022-10-09T05:21:40.808Z,101374.23
2022-10-09T05:23:47.556Z,101372.00
2022-10-09T05:26:01.716Z,101374.23
2022-10-09T05:28:08.285Z,101375.36
2022-10-09T05:30:14.618Z,101380.65
2022-10-09T05:32:21.201Z,101377.95
2022-10-09T05:34:28.067Z,101379.45
2022-10-09T05:36:34.809Z,101383.34
2022-10-09T05:38:41.500Z,101384.63
2022-10-09T05:41:02.641Z,101382.72
2022-10-09T05:43:08.781Z,101381.30
2022-10-09T05:45:14.964Z,101379.48
2022-10-09T05:47:20.923Z,101383.92
2022-10-09T05:49:27.005Z,101383.56
2022-10-09T05:51:35.696Z,101381.88
2022-10-09T05:53:43.206Z,101380.14
2022-10-09T05:55:49.197Z,101379.65
2022-10-09T05:57:55.478Z,101382.95
2022-10-09T06:00:01.522Z,101382.55
2022-10-09T06:02:07.812Z,101384.60
2022-10-09T06:04:22.737Z,101382.24
2022-10-09T06:06:34.193Z,101379.82
2022-10-09T06:08:40.740Z,101378.92
2022-10-09T06:10:47.147Z,101376.25
2022-10-09T06:12:53.781Z,101376.46
2022-10-09T06:15:00.522Z,101374.03
2022-10-09T06:17:06.707Z,101374.31
2022-10-09T06:19:18.513Z,101373.40
2022-10-09T06:21:26.403Z,101375.12
2022-10-09T06:23:33.068Z,101377.64
2022-10-09T06:25:39.479Z,101376.16
2022-10-09T06:27:45.860Z,101375.65
2022-10-09T06:29:52.195Z,101379.36
2022-10-09T06:31:58.651Z,101378.77
2022-10-09T06:34:05.840Z,101376.81
2022-10-09T06:36:15.861Z,101378.67
2022-10-09T06:38:21.960Z,101381.34
2022-10-09T06:40:28.409Z,101378.66
2022-10-09T06:42:34.304Z,101379.25
2022-10-09T06:44:46.764Z,101380.23
2022-10-09T06:46:52.689Z,101381.23
2022-10-09T06:49:00.892Z,101382.21
2022-10-09T06:51:08.656Z,101380.51
2022-10-09T06:53:14.583Z,101383.64
2022-10-09T06:55:21.709Z,101383.44
2022-10-09T06:57:30.114Z,101386.24
2022-10-09T06:59:36.161Z,101385.01
2022-10-09T07:01:42.765Z,101386.29
2022-10-09T07:03:54.230Z,101385.04
2022-10-09T07:06:16.811Z,101384.64
2022-10-09T07:08:22.877Z,101386.64
2022-10-09T07:10:29.485Z,101392.29
2022-10-09T07:12:39.060Z,101392.47
2022-10-09T07:14:45.064Z,101392.81
2022-10-09T07:16:53.030Z,101393.30
2022-10-09T07:19:01.277Z,101395.23
2022-10-09T07:21:09.908Z,101396.58
2022-10-09T07:23:15.901Z,101395.81
2022-10-09T07:25:21.950Z,101392.05
2022-10-09T07:27:28.121Z,101391.85
2022-10-09T07:29:34.132Z,101392.80
2022-10-09T07:31:40.133Z,101396.40
2022-10-09T07:33:50.190Z,101396.23
2022-10-09T07:35:57.652Z,101393.56
2022-10-09T07:38:04.768Z,101392.94
2022-10-09T07:40:11.549Z,101393.67
2022-10-09T07:42:17.991Z,101390.74
2022-10-09T07:44:24.446Z,101399.33
2022-10-09T07:46:33.722Z,101396.08
2022-10-09T07:48:41.060Z,101396.65
2022-10-09T07:50:47.385Z,101395.23
2022-10-09T07:52:53.470Z,101394.03
2022-10-09T07:55:00.032Z,101392.60
2022-10-09T07:57:06.747Z,101393.33
2022-10-09T07:59:17.398Z,101394.36
2022-10-09T08:01:25.359Z,101397.63
2022-10-09T08:03:31.959Z,101396.04
2022-10-09T08:05:38.555Z,101400.67
2022-10-09T08:07:45.025Z,101400.77
2022-10-09T08:09:51.345Z,101401.39
2022-10-09T08:11:58.536Z,101405.49
2022-10-09T08:14:05.401Z,101404.79
2022-10-09T08:16:12.128Z,101402.95
2022-10-09T08:18:18.163Z,101402.56
2022-10-09T08:20:24.565Z,101404.37
2022-10-09T08:22:30.644Z,101408.58
2022-10-09T08:24:36.603Z,101408.17
2022-10-09T08:26:44.085Z,101411.48
2022-10-09T08:29:01.599Z,101408.48
2022-10-09T08:31:15.364Z,101410.05
2022-10-09T08:33:23.116Z,101410.44
2022-10-09T08:35:33.663Z,101409.23
2022-10-09T08:37:41.685Z,101415.00
2022-10-09T08:39:48.279Z,101415.96
2022-10-09T08:41:59.665Z,101416.90
2022-10-09T08:44:19.898Z,101416.65
2022-10-09T08:46:33.796Z,101422.64
2022-10-09T08:48:45.629Z,101418.65
2022-10-09T08:50:54.710Z,101418.33
2022-10-09T08:53:31.441Z,101421.16
2022-10-09T08:55:52.187Z,101419.54
2022-10-09T08:58:06.741Z,101418.55
2022-10-09T09:00:21.702Z,101417.89
2022-10-09T09:02:51.529Z,101418.27
2022-10-09T09:05:03.652Z,101416.42
2022-10-09T09:07:12.498Z,101418.53
2022-10-09T09:09:19.662Z,101418.77
2022-10-09T09:11:50.277Z,101416.74
2022-10-09T09:14:30.484Z,101419.20
2022-10-09T09:16:40.005Z,101415.45
2022-10-09T09:18:46.190Z,101416.70
2022-10-09T09:21:11.801Z,101415.03
2022-10-09T09:23:18.577Z,101421.27
2022-10-09T09:25:32.392Z,101422.77
2022-10-09T09:27:39.861Z,101421.65
2022-10-09T09:30:04.144Z,101419.96
2022-10-09T09:32:19.076Z,101421.70
2022-10-09T09:34:37.487Z,101423.58
2022-10-09T09:36:53.243Z,101425.38
2022-10-09T09:39:49.875Z,101426.31
2022-10-09T09:41:26.434Z,101426.19
2022-10-09T09:43:32.595Z,101423.48
2022-10-09T09:45:38.774Z,101426.36
2022-10-09T09:47:51.221Z,101428.48
2022-10-09T09:50:03.659Z,101428.60
2022-10-09T09:52:10.988Z,101428.56
2022-10-09T09:54:28.744Z,101429.48
2022-10-09T09:57:11.045Z,101433.81
2022-10-09T09:59:35.246Z,101431.63
2022-10-09T10:01:41.630Z,101429.70
2022-10-09T10:03:54.173Z,101430.51
2022-10-09T10:06:00.245Z,101425.89
2022-10-09T10:08:27.275Z,101428.22
2022-10-09T10:10:33.348Z,101425.23
2022-10-09T10:13:00.315Z,101428.35
2022-10-09T10:15:06.715Z,101428.57
2022-10-09T10:17:33.807Z,101433.45
2022-10-09T10:19:41.233Z,101433.73
2022-10-09T10:22:01.463Z,101430.55
2022-10-09T10:24:13.434Z,101433.44
2022-10-09T10:26:32.526Z,101435.73
2022-10-09T10:28:53.202Z,101433.81
2022-10-09T10:31:03.396Z,101433.95
2022-10-09T10:33:23.781Z,101434.32
2022-10-09T10:35:34.170Z,101432.56
2022-10-09T10:37:49.054Z,101429.92
2022-10-09T10:40:13.604Z,101426.18
2022-10-09T10:43:00.274Z,101426.87
2022-10-09T10:45:20.397Z,101428.17
2022-10-09T10:47:31.413Z,101430.05
2022-10-09T10:49:37.491Z,101429.45
2022-10-09T10:52:12.022Z,101429.73
2022-10-09T10:54:28.190Z,101432.56
2022-10-09T10:56:45.626Z,101433.86
2022-10-09T10:59:03.873Z,101433.59
2022-10-09T11:01:28.092Z,101437.76
2022-10-09T11:03:50.777Z,101440.54
2022-10-09T11:06:04.059Z,101436.09
2022-10-09T11:08:10.185Z,101441.90
2022-10-09T11:10:22.105Z,101442.02
2022-10-09T11:12:46.864Z,101441.48
2022-10-09T11:15:09.843Z,101441.20
2022-10-09T11:17:43.191Z,101444.70
2022-10-09T11:20:18.431Z,101446.96
2022-10-09T11:23:01.483Z,101443.14
2022-10-09T11:25:47.492Z,101445.66
2022-10-09T11:28:06.227Z,101446.87
2022-10-09T11:30:18.020Z,101446.27
2022-10-09T11:32:32.055Z,101439.44
2022-10-09T11:34:47.805Z,101439.08
2022-10-09T11:36:54.707Z,101438.89
2022-10-09T11:39:04.433Z,101442.64
2022-10-09T11:41:10.956Z,101437.30
2022-10-09T11:43:27.319Z,101438.08
2022-10-09T11:45:45.624Z,101438.13
2022-10-09T11:48:20.825Z,101439.34
2022-10-09T11:50:51.221Z,101442.33
2022-10-09T11:53:14.990Z,101440.88
2022-10-09T11:55:23.132Z,101446.83
2022-10-09T11:57:31.198Z,101449.21
2022-10-09T11:59:43.195Z,101447.88
2022-10-09T12:01:49.897Z,101450.37
2022-10-09T12:04:14.744Z,101446.72
2022-10-09T12:06:23.467Z,101445.63
2022-10-09T12:08:30.132Z,101445.70
2022-10-09T12:10:36.929Z,101447.95
2022-10-09T12:12:44.284Z,101449.73
2022-10-09T12:14:53.049Z,101451.60
2022-10-09T12:17:00.783Z,101451.25
2022-10-09T12:19:16.593Z,101455.46
2022-10-09T12:21:30.253Z,101458.19
2022-10-09T12:23:41.567Z,101459.50
2022-10-09T12:25:48.789Z,101458.41
2022-10-09T12:28:00.098Z,101459.81
2022-10-09T12:30:15.935Z,101458.59
2022-10-09T12:32:40.558Z,101464.88
2022-10-09T12:34:51.471Z,101468.76
2022-10-09T12:37:21.215Z,101469.04
2022-10-09T12:39:27.585Z,101470.68
2022-10-09T12:41:37.532Z,101470.89
2022-10-09T12:43:47.660Z,101474.45
2022-10-09T12:45:55.137Z,101474.48
2022-10-09T12:48:11.914Z,101474.16
2022-10-09T12:50:18.430Z,101470.94
2022-10-09T12:52:24.677Z,101471.81
2022-10-09T12:54:32.849Z,101473.73
2022-10-09T12:56:41.001Z,101475.50
2022-10-09T12:58:47.283Z,101474.67
2022-10-09T13:00:56.994Z,101475.01
2022-10-09T13:03:03.607Z,101471.93
2022-10-09T13:05:10.101Z,101474.10
2022-10-09T13:07:23.055Z,101474.56
2022-10-09T13:09:31.409Z,101474.09
2022-10-09T13:11:41.816Z,101475.86
2022-10-09T13:13:53.383Z,101474.04
2022-10-09T13:16:01.626Z,101471.45
2022-10-09T13:18:25.791Z,101474.55
2022-10-09T13:20:34.084Z,101475.45
2022-10-09T13:22:40.999Z,101476.34
2022-10-09T13:24:48.256Z,101475.52
2022-10-09T13:26:54.262Z,101475.19
2022-10-09T13:29:03.743Z,101475.48
2022-10-09T13:31:10.563Z,101476.98
2022-10-09T13:33:18.181Z,101476.35
2022-10-09T13:35:24.703Z,101479.33
2022-10-09T13:37:31.003Z,101480.09
2022-10-09T13:39:37.298Z,101480.56
2022-10-09T13:41:47.387Z,101484.71
2022-10-09T13:43:54.889Z,101482.66
2022-10-09T13:46:01.096Z,101481.45
2022-10-09T13:48:07.174Z,101482.00
2022-10-09T13:50:15.926Z,101482.29
2022-10-09T13:52:21.968Z,101484.92
2022-10-09T13:54:28.170Z,101481.66
2022-10-09T13:56:34.763Z,101487.23
2022-10-09T13:58:40.919Z,101490.77
2022-10-09T14:00:47.844Z,101494.75
2022-10-09T14:02:53.915Z,101491.60
2022-10-09T14:04:59.962Z,101494.16
2022-10-09T14:07:06.493Z,101494.45
2022-10-09T14:09:12.979Z,101495.13
2022-10-09T14:11:19.321Z,101499.89
2022-10-09T14:13:25.685Z,101500.02
2022-10-09T14:15:32.010Z,101504.58
2022-10-09T14:17:38.388Z,101502.64
2022-10-09T14:19:45.070Z,101506.13
2022-10-09T14:21:51.534Z,101506.42
2022-10-09T14:24:00.116Z,101510.89
2022-10-09T14:26:07.982Z,101516.30
2022-10-09T14:28:14.417Z,101518.95
2022-10-09T14:30:20.601Z,101519.27
2022-10-09T14:32:26.821Z,101519.17
2022-10-09T14:34:32.784Z,101522.92
2022-10-09T14:36:41.556Z,101522.91
2022-10-09T14:38:49.422Z,101523.94
2022-10-09T14:40:57.367Z,101521.02
2022-10-09T14:43:03.488Z,101525.27
2022-10-09T14:45:11.490Z,101526.76
2022-10-09T14:47:17.529Z,101528.34
2022-10-09T14:49:23.595Z,101526.50
2022-10-09T14:51:32.538Z,101529.45
2022-10-09T14:53:41.054Z,101532.56
2022-10-09T14:55:47.568Z,101532.19
2022-10-09T14:57:54.168Z,101534.00
2022-10-09T15:00:00.963Z,101527.45
2022-10-09T15:02:08.310Z,101530.63
2022-10-09T15:04:16.202Z,101530.75
2022-10-09T15:06:25.242Z,101533.96
2022-10-09T15:08:32.550Z,101530.14
2022-10-09T15:10:38.929Z,101533.63
2022-10-09T15:12:45.357Z,101537.55
2022-10-09T15:14:51.938Z,101538.77
2022-10-09T15:16:58.515Z,101541.35
2022-10-09T15:19:06.690Z,101542.75
2022-10-09T15:21:22.764Z,101544.71
2022-10-09T15:23:29.884Z,101543.70
2022-10-09T15:25:36.206Z,101545.98
2022-10-09T15:27:42.894Z,101544.48
2022-10-09T15:29:49.564Z,101545.16
2022-10-09T15:31:56.139Z,101554.33
2022-10-09T15:34:02.803Z,101551.69
2022-10-09T15:36:08.898Z,101557.42
2022-10-09T15:38:16.871Z,101554.13
2022-10-09T15:40:22.956Z,101554.84
2022-10-09T15:42:29.682Z,101554.21
2022-10-09T15:44:35.743Z,101556.59
2022-10-09T15:46:41.848Z,101556.27
2022-10-09T15:48:48.767Z,101557.89
2022-10-09T15:50:54.749Z,101562.94
2022-10-09T15:53:01.082Z,101562.71
2022-10-09T15:55:07.854Z,101557.73
2022-10-09T15:57:13.918Z,101561.86
2022-10-09T15:59:19.872Z,101561.13
2022-10-09T16:01:26.891Z,101564.52
2022-10-09T16:03:36.974Z,101559.88
2022-10-09T16:05:48.083Z,101567.94
2022-10-09T16:07:54.566Z,101568.02
2022-10-09T16:10:00.927Z,101572.98
2022-10-09T16:12:07.082Z,101572.99
2022-10-09T16:14:12.993Z,101577.35
2022-10-09T16:16:23.748Z,101581.15
2022-10-09T16:18:29.836Z,101583.04
2022-10-09T16:20:37.602Z,101586.27
2022-10-09T16:22:44.042Z,101586.45
2022-10-09T16:24:50.116Z,101588.10
2022-10-09T16:26:56.290Z,101587.01
2022-10-09T16:29:02.437Z,101589.89
2022-10-09T16:31:08.642Z,101588.80
2022-10-09T16:33:14.602Z,101588.16
2022-10-09T16:35:21.070Z,101586.44
2022-10-09T16:37:27.092Z,101587.14
2022-10-09T16:39:33.438Z,101587.05
2022-10-09T16:41:41.952Z,101582.94
2022-10-09T16:43:50.078Z,101583.48
2022-10-09T16:45:56.026Z,101584.23
2022-10-09T16:48:02.423Z,101579.42
2022-10-09T16:50:09.520Z,101581.64
2022-10-09T16:52:15.867Z,101581.42
2022-10-09T16:54:21.814Z,101589.77
2022-10-09T16:56:34.276Z,101595.80
2022-10-09T16:58:41.481Z,101600.03
2022-10-09T17:00:47.959Z,101597.86
2022-10-09T17:02:53.994Z,101598.70
2022-10-09T17:05:00.053Z,101593.67
2022-10-09T17:07:06.784Z,101593.73
2022-10-09T17:09:14.511Z,101592.77
2022-10-09T17:11:21.048Z,101593.92
2022-10-09T17:13:27.917Z,101592.73
2022-10-09T17:15:34.333Z,101591.02
2022-10-09T17:17:40.859Z,101594.70
2022-10-09T17:19:47.477Z,101592.13
2022-10-09T17:21:54.135Z,101588.79
2022-10-09T17:24:02.179Z,101582.74
2022-10-09T17:26:14.127Z,101584.30
2022-10-09T17:28:20.810Z,101591.40
2022-10-09T17:30:27.980Z,101587.70
2022-10-09T17:32:34.653Z,101585.34
2022-10-09T17:34:44.187Z,101587.31
2022-10-09T17:36:50.141Z,101582.54
2022-10-09T17:38:56.921Z,101588.63
2022-10-09T17:41:08.219Z,101585.88
2022-10-09T17:43:14.197Z,101583.84
2022-10-09T17:45:20.321Z,101581.44
2022-10-09T17:47:26.366Z,101578.02
2022-10-09T17:49:32.938Z,101585.23
2022-10-09T17:51:41.331Z,101581.10
2022-10-09T17:53:48.291Z,101579.80
2022-10-09T17:55:56.959Z,101583.48
2022-10-09T17:58:03.387Z,101579.23
2022-10-09T18:00:11.815Z,101579.33
2022-10-09T18:02:18.334Z,101573.14
2022-10-09T18:04:25.342Z,101573.39
2022-10-09T18:06:36.017Z,101573.58
2022-10-09T18:08:42.535Z,101578.88
2022-10-09T18:10:58.166Z,101574.90
2022-10-09T18:13:07.966Z,101573.77
2022-10-09T18:15:14.074Z,101575.23
2022-10-09T18:17:20.090Z,101570.71
2022-10-09T18:19:26.162Z,101568.61
2022-10-09T18:21:32.421Z,101573.98
2022-10-09T18:23:38.900Z,101575.01
2022-10-09T18:25:46.072Z,101576.96
2022-10-09T18:27:52.546Z,101576.20
2022-10-09T18:29:58.897Z,101574.42
2022-10-09T18:32:05.037Z,101576.67
2022-10-09T18:34:11.790Z,101575.03
2022-10-09T18:36:24.094Z,101571.61
2022-10-09T18:38:30.083Z,101571.40
2022-10-09T18:40:45.873Z,101570.81
2022-10-09T18:42:53.532Z,101563.57
2022-10-09T18:45:00.032Z,101567.74
2022-10-09T18:47:06.316Z,101568.05
2022-10-09T18:49:15.218Z,101568.75
2022-10-09T18:51:25.270Z,101566.12
2022-10-09T18:53:32.638Z,101568.09
2022-10-09T18:55:38.682Z,101563.42
2022-10-09T18:57:45.584Z,101562.27
2022-10-09T18:59:53.100Z,101559.15
2022-10-09T19:01:59.219Z,101555.77
2022-10-09T19:04:05.609Z,101554.00
2022-10-09T19:06:11.737Z,101551.89
2022-10-09T19:08:17.847Z,101551.70
2022-10-09T19:10:24.099Z,101547.90
2022-10-09T19:12:30.195Z,101546.52
2022-10-09T19:14:37.427Z,101543.41
2022-10-09T19:16:43.895Z,101543.98
2022-10-09T19:18:49.964Z,101535.86
2022-10-09T19:20:55.980Z,101537.34
2022-10-09T19:23:02.569Z,101534.71
2022-10-09T19:25:09.184Z,101534.28
2022-10-09T19:27:16.065Z,101530.34
2022-10-09T19:29:22.381Z,101536.31
2022-10-09T19:31:28.907Z,101532.55
2022-10-09T19:33:35.575Z,101529.22
2022-10-09T19:35:54.364Z,101529.44
2022-10-09T19:38:00.793Z,101527.27
2022-10-09T19:40:07.688Z,101522.63
2022-10-09T19:42:13.925Z,101523.42
2022-10-09T19:44:21.036Z,101521.52
2022-10-09T19:46:28.219Z,101520.04
2022-10-09T19:48:35.666Z,101520.58
2022-10-09T19:50:44.416Z,101522.52
2022-10-09T19:52:50.672Z,101516.16
2022-10-09T19:54:57.131Z,101516.04
2022-10-09T19:57:03.872Z,101512.99
2022-10-09T19:59:16.094Z,101510.94
2022-10-09T20:01:25.787Z,101509.00
2022-10-09T20:03:32.304Z,101506.88
2022-10-09T20:05:39.229Z,101504.00
2022-10-09T20:07:45.643Z,101500.15
2022-10-09T20:09:51.718Z,101494.82
2022-10-09T20:11:57.778Z,101491.40
2022-10-09T20:14:05.185Z,101488.52
2022-10-09T20:16:14.457Z,101490.77
2022-10-09T20:18:21.214Z,101485.73
2022-10-09T20:20:28.206Z,101481.17
2022-10-09T20:22:34.818Z,101481.40
2022-10-09T20:24:41.316Z,101475.87
2022-10-09T20:26:47.816Z,101468.13
2022-10-09T20:28:57.396Z,101469.73
2022-10-09T20:31:07.625Z,101463.20
2022-10-09T20:33:13.971Z,101462.75
2022-10-09T20:35:20.584Z,101462.30
2022-10-09T20:37:27.328Z,101456.88
2022-10-09T20:39:33.752Z,101454.52
2022-10-09T20:41:41.167Z,101452.70
2022-10-09T20:43:52.741Z,101448.95
2022-10-09T20:45:59.497Z,101445.21
2022-10-09T20:48:05.875Z,101446.15
2022-10-09T20:50:12.939Z,101445.14
2022-10-09T20:52:19.230Z,101438.98
2022-10-09T20:54:25.903Z,101437.81
2022-10-09T20:56:33.725Z,101434.38
2022-10-09T20:58:40.815Z,101433.41
2022-10-09T21:00:46.732Z,101431.15
2022-10-09T21:02:53.078Z,101431.55
2022-10-09T21:04:59.394Z,101427.42
2022-10-09T21:07:05.571Z,101425.60
2022-10-09T21:09:11.978Z,101423.58
2022-10-09T21:11:19.743Z,101420.29
2022-10-09T21:13:25.929Z,101413.58
2022-10-09T21:15:32.504Z,101412.60
2022-10-09T21:17:38.677Z,101409.89
2022-10-09T21:19:44.917Z,101408.20
2022-10-09T21:21:51.537Z,101405.48
2022-10-09T21:23:59.776Z,101405.13
2022-10-09T21:26:06.693Z,101406.09
2022-10-09T21:28:13.066Z,101398.59
2022-10-09T21:30:19.756Z,101396.70
2022-10-09T21:32:25.985Z,101394.58
2022-10-09T21:34:32.549Z,101390.36
2022-10-09T21:37:19.827Z,101386.50
2022-10-09T21:39:21.032Z,101383.34
2022-10-09T21:41:27.758Z,101383.44
2022-10-09T21:43:34.332Z,101381.14
2022-10-09T21:45:41.824Z,101375.83
2022-10-09T21:47:47.969Z,101371.13
2022-10-09T21:49:54.088Z,101368.29
2022-10-09T21:52:00.671Z,101363.55
2022-10-09T21:54:06.759Z,101364.23
2022-10-09T21:56:13.683Z,101365.67
2022-10-09T21:58:19.922Z,101363.60
2022-10-09T22:00:26.367Z,101362.48
2022-10-09T22:02:33.089Z,101357.89
2022-10-09T22:04:39.057Z,101357.05
2022-10-09T22:06:45.141Z,101358.55
2022-10-09T22:08:51.565Z,101354.67
2022-10-09T22:10:57.635Z,101346.89
2022-10-09T22:13:04.151Z,101347.45
2022-10-09T22:15:10.981Z,101343.45
2022-10-09T22:17:17.367Z,101340.73
2022-10-09T22:19:23.671Z,101339.63
2022-10-09T22:21:30.117Z,101340.80
2022-10-09T22:23:36.689Z,101339.74
2022-10-09T22:25:43.057Z,101337.42
2022-10-09T22:27:49.102Z,101335.92
2022-10-09T22:29:55.250Z,101331.64
2022-10-09T22:32:01.630Z,101330.29
2022-10-09T22:34:08.088Z,101330.41
2022-10-09T22:36:17.238Z,101330.34
2022-10-09T22:38:23.440Z,101325.98
2022-10-09T22:40:29.510Z,101325.93
2022-10-09T22:42:35.903Z,101320.84
2022-10-09T22:44:42.530Z,101317.37
2022-10-09T22:46:52.321Z,101313.13
2022-10-09T22:48:59.001Z,101313.40
2022-10-09T22:51:07.452Z,101310.77
2022-10-09T22:53:13.930Z,101305.98
2022-10-09T22:55:20.590Z,101306.55
2022-10-09T22:57:27.923Z,101304.95
2022-10-09T22:59:34.075Z,101299.16
2022-10-09T23:01:49.400Z,101296.77
2022-10-09T23:03:55.468Z,101290.90
2022-10-09T23:06:09.536Z,101289.65
2022-10-09T23:08:15.912Z,101285.14
2022-10-09T23:10:22.023Z,101285.12
2022-10-09T23:12:28.193Z,101282.86
2022-10-09T23:14:34.242Z,101278.59
2022-10-09T23:16:40.948Z,101278.73
2022-10-09T23:18:47.326Z,101274.17
2022-10-09T23:20:53.359Z,101272.02
2022-10-09T23:22:59.419Z,101269.46
2022-10-09T23:25:05.890Z,101269.20
2022-10-09T23:27:12.182Z,101270.88
2022-10-09T23:29:21.769Z,101266.97
2022-10-09T23:31:29.661Z,101267.16
2022-10-09T23:33:36.239Z,101268.40
2022-10-09T23:35:45.628Z,101263.69
2022-10-09T23:37:54.605Z,101261.40
2022-10-09T23:40:01.085Z,101259.11
2022-10-09T23:42:07.058Z,101258.73
2022-10-09T23:44:13.366Z,101256.92
2022-10-09T23:46:22.172Z,101251.14
2022-10-09T23:48:29.289Z,101251.09
2022-10-09T23:50:35.247Z,101249.77
2022-10-09T23:52:41.248Z,101247.75
2022-10-09T23:54:47.183Z,101249.70
2022-10-09T23:56:53.166Z,101249.77
2022-10-09T23:59:01.067Z,101249.54
